Time;durP1;ratioP1;P1;durP2;ratioP2;P2;SDS_P1;SDS_P2;PMS_P1;PMS_P2;Temp;Humidity;BMP_temperature;BMP_pressure;BME280_temperature;BME280_humidity;BME280_pressure;Samples;Min_cycle;Max_cycle;Signal;HPM_P1;HPM_P2
2023/08/19 00:01:46;;;;;;;5.20;4.43;;;21.10;99.90;;;;;;4972968;28;20038;-76
2023/08/19 00:04:11;;;;;;;4.00;3.70;;;21.10;99.90;;;;;;4972825;28;20517;-76
2023/08/19 00:06:39;;;;;;;4.80;4.40;;;21.10;99.90;;;;;;4966927;28;20511;-76
2023/08/19 00:09:08;;;;;;;4.72;4.32;;;21.00;99.90;;;;;;4975402;28;20046;-76
2023/08/19 00:11:35;;;;;;;5.15;4.65;;;21.00;99.90;;;;;;4959443;28;20501;-76
2023/08/19 00:14:03;;;;;;;4.18;3.80;;;21.00;99.90;;;;;;4961749;28;20073;-76
2023/08/19 00:16:29;;;;;;;4.35;3.95;;;21.00;99.90;;;;;;4967278;28;20513;-75
2023/08/19 00:18:56;;;;;;;3.97;3.42;;;21.00;99.90;;;;;;4947166;28;20043;-76
2023/08/19 00:21:22;;;;;;;3.75;3.45;;;21.00;99.90;;;;;;4969089;28;20046;-76
2023/08/19 00:23:48;;;;;;;4.00;3.65;;;20.90;99.90;;;;;;4973094;28;20042;-76
2023/08/19 00:26:13;;;;;;;3.80;3.50;;;21.00;99.90;;;;;;4972760;28;20446;-76
2023/08/19 00:28:40;;;;;;;4.05;3.38;;;20.90;99.90;;;;;;4972694;28;20477;-76
2023/08/19 00:31:07;;;;;;;3.70;3.40;;;21.00;99.90;;;;;;4940050;28;20069;-75
2023/08/19 00:33:32;;;;;;;4.00;3.58;;;20.90;99.90;;;;;;4972227;28;20062;-76
2023/08/19 00:35:59;;;;;;;3.80;3.50;;;20.90;99.90;;;;;;4943436;28;20479;-76
2023/08/19 00:38:24;;;;;;;5.28;4.82;;;20.90;99.90;;;;;;4972739;28;20043;-75
2023/08/19 00:40:50;;;;;;;3.97;3.67;;;20.90;99.90;;;;;;4956403;28;20046;-76
2023/08/19 00:43:16;;;;;;;3.70;3.40;;;20.90;99.90;;;;;;4972355;28;20065;-75
2023/08/19 00:45:45;;;;;;;4.53;4.13;;;20.80;99.90;;;;;;4972431;28;20043;-76
2023/08/19 00:48:16;;;;;;;4.05;3.72;;;20.80;99.90;;;;;;4969058;28;20046;-76
2023/08/19 00:50:43;;;;;;;5.30;4.80;;;20.80;99.90;;;;;;4967936;28;20043;-76
2023/08/19 00:53:10;;;;;;;5.25;4.75;;;20.90;99.90;;;;;;4972145;28;20051;-76
2023/08/19 00:55:36;;;;;;;5.10;4.60;;;20.90;99.90;;;;;;4958677;28;20574;-76
2023/08/19 00:58:07;;;;;;;3.60;3.30;;;20.80;99.90;;;;;;4972274;28;20046;-76
2023/08/19 01:00:34;;;;;;;4.03;3.60;;;20.90;99.90;;;;;;4971880;28;20043;-76
2023/08/19 01:03:00;;;;;;;4.00;3.60;;;20.80;99.90;;;;;;4967513;28;20051;-76
2023/08/19 01:05:49;;;;;;;3.67;3.38;;;20.80;99.90;;;;;;4963407;28;20074;-76
2023/08/19 01:08:22;;;;;;;4.05;3.75;;;20.80;99.90;;;;;;4972142;28;20082;-76
2023/08/19 01:10:56;;;;;;;3.70;3.38;;;20.70;99.90;;;;;;4970850;28;20054;-76
2023/08/19 01:13:29;;;;;;;3.50;3.20;;;20.70;99.90;;;;;;4971697;28;20051;-76
2023/08/19 01:16:23;;;;;;;3.53;3.22;;;20.70;99.90;;;;;;4971827;28;20031;-76
2023/08/19 01:18:49;;;;;;;3.60;3.30;;;20.80;99.90;;;;;;4959009;28;20051;-76
2023/08/19 01:21:16;;;;;;;3.55;3.15;;;20.70;99.90;;;;;;4971502;28;20078;-76
2023/08/19 01:23:45;;;;;;;3.60;3.30;;;20.70;99.90;;;;;;4969289;28;20046;-76
2023/08/19 01:26:11;;;;;;;3.08;2.88;;;20.60;99.90;;;;;;4971156;28;20126;-76
2023/08/19 01:28:37;;;;;;;4.38;3.97;;;20.70;99.90;;;;;;4971046;28;20126;-76
2023/08/19 01:31:02;;;;;;;4.30;3.90;;;20.70;99.90;;;;;;4955509;28;20474;-76
2023/08/19 01:33:28;;;;;;;3.45;3.15;;;20.70;99.90;;;;;;4955105;28;20494;-76
2023/08/19 01:36:13;;;;;;;3.67;3.38;;;20.60;99.90;;;;;;4939438;28;20050;-76
2023/08/19 01:38:56;;;;;;;4.28;3.88;;;20.60;99.90;;;;;;4973473;28;20094;-76
2023/08/19 01:41:23;;;;;;;3.35;3.05;;;20.60;99.90;;;;;;4971314;28;20410;-76
2023/08/19 01:43:49;;;;;;;3.60;3.30;;;20.50;99.90;;;;;;4971118;28;20483;-76
2023/08/19 01:46:15;;;;;;;3.22;2.92;;;20.50;99.90;;;;;;4968231;28;20047;-76
2023/08/19 01:48:41;;;;;;;2.92;2.63;;;20.50;99.90;;;;;;4969058;28;20125;-76
2023/08/19 01:51:06;;;;;;;4.03;3.63;;;20.60;99.90;;;;;;4971086;28;20145;-76
2023/08/19 01:53:32;;;;;;;3.60;3.30;;;20.50;99.90;;;;;;4970817;28;20046;-76
2023/08/19 01:55:58;;;;;;;3.55;3.25;;;20.50;99.90;;;;;;4967932;28;20073;-76
2023/08/19 01:58:24;;;;;;;3.67;3.38;;;20.50;99.90;;;;;;4949046;28;20047;-76
2023/08/19 02:00:49;;;;;;;;;;;20.50;99.90;;;;;;4966450;28;20035;-76
2023/08/19 02:03:15;;;;;;;3.58;3.28;;;20.50;99.90;;;;;;4995015;28;20381;-76
2023/08/19 02:05:40;;;;;;;3.40;3.10;;;20.40;99.90;;;;;;4970768;28;20069;-76
2023/08/19 02:08:06;;;;;;;;;;;20.40;99.90;;;;;;4961335;28;20050;-76
2023/08/19 02:10:32;;;;;;;3.30;3.00;;;20.50;99.90;;;;;;4957508;28;20287;-76
2023/08/19 02:12:58;;;;;;;3.22;2.92;;;20.50;99.90;;;;;;4967548;28;20126;-76
2023/08/19 02:15:24;;;;;;;3.38;3.08;;;20.50;99.90;;;;;;4948570;28;20126;-76
2023/08/19 02:17:49;;;;;;;3.60;3.30;;;20.50;99.90;;;;;;4954808;28;20498;-76
2023/08/19 02:20:15;;;;;;;3.08;2.80;;;20.50;99.90;;;;;;4970924;28;20053;-76
2023/08/19 02:22:41;;;;;;;4.20;3.80;;;20.50;99.90;;;;;;4967128;28;20513;-76
2023/08/19 02:25:07;;;;;;;3.40;3.10;;;20.60;99.90;;;;;;4944135;28;20057;-76
2023/08/19 02:27:33;;;;;;;4.03;3.63;;;20.50;99.90;;;;;;4969355;28;20043;-76
2023/08/19 02:29:59;;;;;;;3.30;3.00;;;20.50;99.90;;;;;;4958091;28;20486;-76
2023/08/19 02:32:26;;;;;;;3.80;3.50;;;20.50;99.90;;;;;;4969351;28;20090;-76
2023/08/19 02:34:51;;;;;;;3.42;3.13;;;20.50;99.90;;;;;;4970265;28;20045;-76
2023/08/19 02:37:17;;;;;;;4.50;3.40;;;20.50;99.90;;;;;;4944293;29;20117;-76
2023/08/19 02:39:43;;;;;;;4.30;3.90;;;20.50;99.90;;;;;;4967106;28;20050;-76
2023/08/19 02:42:11;;;;;;;4.55;4.15;;;20.50;99.90;;;;;;4967185;28;20043;-76
2023/08/19 02:44:36;;;;;;;4.60;4.20;;;20.60;99.90;;;;;;4965263;28;20078;-76
2023/08/19 02:47:02;;;;;;;4.15;3.80;;;20.50;99.90;;;;;;4980117;28;20082;-76
2023/08/19 02:49:28;;;;;;;3.72;3.42;;;20.50;99.90;;;;;;4963661;28;20494;-76
2023/08/19 02:51:54;;;;;;;5.00;4.50;;;20.50;99.90;;;;;;4986362;28;20043;-76
2023/08/19 02:54:19;;;;;;;4.50;4.10;;;20.60;99.90;;;;;;4966886;28;20051;-76
2023/08/19 02:56:45;;;;;;;5.68;5.10;;;20.60;99.90;;;;;;4967037;28;20054;-76
2023/08/19 02:59:11;;;;;;;4.90;4.50;;;20.50;99.90;;;;;;4970247;28;20046;-76
2023/08/19 03:01:37;;;;;;;6.25;5.65;;;20.50;99.90;;;;;;4964863;28;20042;-76
2023/08/19 03:04:02;;;;;;;6.53;5.93;;;20.50;99.90;;;;;;4957399;28;20049;-76
2023/08/19 03:06:28;;;;;;;;;;;20.60;99.90;;;;;;4958454;28;20051;-76
2023/08/19 03:08:54;;;;;;;6.30;5.70;;;20.60;99.90;;;;;;4968723;28;20285;-76
2023/08/19 03:11:19;;;;;;;5.50;5.00;;;20.50;99.90;;;;;;4970040;28;20058;-75
2023/08/19 03:13:45;;;;;;;5.78;5.22;;;20.50;99.90;;;;;;4953754;28;20039;-76
2023/08/19 03:16:10;;;;;;;5.97;5.47;;;20.50;99.90;;;;;;4970346;28;20046;-76
2023/08/19 03:18:36;;;;;;;;;;;20.60;99.90;;;;;;4971620;28;20046;-76
2023/08/19 03:21:02;;;;;;;5.50;4.95;;;20.50;99.90;;;;;;5002667;28;19922;-76
2023/08/19 03:23:28;;;;;;;5.28;4.78;;;20.40;99.90;;;;;;4973756;28;20431;-76
2023/08/19 03:25:55;;;;;;;4.85;4.45;;;20.50;99.90;;;;;;4955111;28;20125;-76
2023/08/19 03:28:21;;;;;;;4.30;3.90;;;20.40;99.90;;;;;;4959560;28;20055;-76
2023/08/19 03:30:46;;;;;;;5.18;4.68;;;20.50;99.90;;;;;;4964136;28;20043;-76
2023/08/19 03:33:12;;;;;;;5.10;4.60;;;20.40;99.90;;;;;;4968443;28;20063;-76
2023/08/19 03:35:38;;;;;;;5.40;4.53;;;20.40;99.90;;;;;;4972955;28;20046;-76
2023/08/19 03:38:04;;;;;;;5.78;5.22;;;20.30;99.90;;;;;;4973516;28;20101;-76
2023/08/19 03:40:29;;;;;;;4.65;4.25;;;20.50;99.90;;;;;;4970259;28;20051;-76
2023/08/19 03:42:56;;;;;;;5.32;4.82;;;20.50;99.90;;;;;;4966171;28;20055;-76
2023/08/19 03:45:22;;;;;;;5.25;4.75;;;20.40;99.90;;;;;;4966465;28;20482;-76
2023/08/19 03:47:47;;;;;;;4.60;4.20;;;20.40;99.90;;;;;;4966741;28;20050;-76
2023/08/19 03:50:13;;;;;;;;;;;20.40;99.90;;;;;;4973782;28;20046;-76
2023/08/19 03:52:39;;;;;;;5.03;4.53;;;20.50;99.90;;;;;;5005765;28;20311;-76
2023/08/19 03:55:05;;;;;;;5.22;4.70;;;20.40;99.90;;;;;;4957317;28;20077;-75
2023/08/19 03:57:30;;;;;;;;;;;20.40;99.90;;;;;;4957965;28;20478;-76
2023/08/19 03:59:56;;;;;;;5.27;4.77;;;20.40;99.90;;;;;;4972893;28;19973;-76
2023/08/19 04:02:22;;;;;;;5.88;5.38;;;20.40;99.90;;;;;;4973182;28;20051;-76
2023/08/19 04:05:00;;;;;;;6.47;5.88;;;20.40;99.90;;;;;;4972946;28;20059;-76
2023/08/19 04:07:26;;;;;;;5.78;5.28;;;20.50;99.90;;;;;;4960336;28;20097;-76
2023/08/19 04:09:54;;;;;;;5.10;4.60;;;20.50;99.90;;;;;;4953883;28;20055;-76
2023/08/19 04:12:24;;;;;;;6.90;6.20;;;20.50;99.90;;;;;;4999671;28;20043;-76
2023/08/19 04:14:50;;;;;;;7.05;6.38;;;20.50;99.90;;;;;;4980201;28;20082;-76
2023/08/19 04:17:16;;;;;;;6.05;5.45;;;20.50;99.90;;;;;;4959221;28;20070;-76
2023/08/19 04:19:43;;;;;;;8.25;7.45;;;20.50;99.90;;;;;;4972792;28;20054;-76
2023/08/19 04:22:17;;;;;;;6.60;6.00;;;20.50;99.90;;;;;;4938969;28;20043;-76
2023/08/19 04:24:43;;;;;;;6.15;5.60;;;20.50;99.90;;;;;;4962415;28;20078;-76
2023/08/19 04:27:08;;;;;;;5.90;5.30;;;20.40;99.90;;;;;;4970589;28;20395;-76
2023/08/19 04:29:34;;;;;;;6.18;5.57;;;20.40;99.90;;;;;;4966225;28;20047;-76
2023/08/19 04:32:03;;;;;;;;;;;20.50;99.90;;;;;;4949865;28;20070;-76
2023/08/19 04:34:32;;;;;;;5.30;4.80;;;20.50;99.90;;;;;;4991254;28;19922;-76
2023/08/19 04:36:57;;;;;;;5.80;5.30;;;20.50;99.90;;;;;;4972731;28;20418;-76
2023/08/19 04:39:24;;;;;;;5.22;4.72;;;20.40;99.90;;;;;;4959181;28;20122;-75
2023/08/19 04:41:50;;;;;;;5.40;4.90;;;20.40;99.90;;;;;;4955589;28;20056;-76
2023/08/19 04:44:16;;;;;;;5.30;4.80;;;20.50;99.90;;;;;;4964693;28;20379;-76
2023/08/19 04:46:42;;;;;;;5.20;4.72;;;20.50;99.90;;;;;;4956146;28;20043;-76
2023/08/19 04:49:08;;;;;;;4.60;4.20;;;20.50;99.90;;;;;;4972495;28;20050;-76
2023/08/19 04:51:35;;;;;;;5.30;4.80;;;20.50;99.90;;;;;;4971079;28;20344;-76
2023/08/19 04:54:00;;;;;;;5.07;4.68;;;20.50;99.90;;;;;;4956245;28;20046;-76
2023/08/19 04:56:26;;;;;;;5.65;5.10;;;20.50;99.90;;;;;;4966397;28;20053;-76
2023/08/19 04:58:52;;;;;;;5.40;4.90;;;20.50;99.90;;;;;;4939534;29;20039;-76
2023/08/19 05:01:17;;;;;;;4.60;4.20;;;20.50;99.90;;;;;;4997130;28;20125;-76
2023/08/19 05:03:43;;;;;;;4.65;4.25;;;20.50;99.90;;;;;;4958530;28;20054;-76
2023/08/19 05:06:09;;;;;;;;;;;20.60;99.90;;;;;;4972383;28;20043;-76
2023/08/19 05:08:35;;;;;;;5.20;4.70;;;20.70;99.90;;;;;;4971780;28;19929;-76
2023/08/19 05:11:00;;;;;;;4.30;3.90;;;20.60;99.90;;;;;;4939804;28;20058;-76
2023/08/19 05:13:26;;;;;;;4.95;4.45;;;20.70;99.90;;;;;;4970425;28;20035;-76
2023/08/19 05:15:52;;;;;;;4.70;4.30;;;20.60;99.90;;;;;;4970465;28;20125;-76
2023/08/19 05:18:17;;;;;;;4.88;4.45;;;20.70;99.90;;;;;;4962639;28;20047;-76
2023/08/19 05:20:43;;;;;;;4.18;3.78;;;20.70;99.90;;;;;;4971811;28;20070;-76
2023/08/19 05:23:09;;;;;;;5.80;4.25;;;20.80;99.90;;;;;;4955008;28;20054;-76
2023/08/19 05:25:35;;;;;;;4.88;4.38;;;20.80;99.90;;;;;;4957820;28;20055;-76
2023/08/19 05:28:00;;;;;;;5.00;4.50;;;20.90;99.90;;;;;;4971659;28;20061;-77
2023/08/19 05:30:26;;;;;;;4.43;3.90;;;20.90;99.90;;;;;;4968542;28;20051;-76
2023/08/19 05:32:52;;;;;;;4.13;3.72;;;20.90;99.90;;;;;;4971027;28;20409;-76
2023/08/19 05:35:18;;;;;;;4.80;4.30;;;20.90;99.90;;;;;;4971232;28;20054;-76
2023/08/19 05:37:43;;;;;;;4.32;3.92;;;20.90;99.90;;;;;;4971064;28;20049;-77
2023/08/19 05:40:09;;;;;;;4.90;4.40;;;20.90;99.90;;;;;;4955084;28;20078;-77
2023/08/19 05:42:35;;;;;;;4.40;4.00;;;21.00;99.90;;;;;;4944713;29;20506;-77
2023/08/19 05:45:01;;;;;;;3.92;3.63;;;21.00;99.90;;;;;;4966046;28;20080;-77
2023/08/19 05:47:26;;;;;;;4.70;4.10;;;21.00;99.90;;;;;;4974818;28;20058;-77
2023/08/19 05:49:52;;;;;;;4.88;4.38;;;21.00;99.90;;;;;;4999972;28;20129;-76
2023/08/19 05:52:18;;;;;;;3.72;3.42;;;21.10;99.90;;;;;;4955151;28;20478;-77
2023/08/19 05:54:43;;;;;;;4.15;3.78;;;21.20;99.90;;;;;;4987030;28;20043;-77
2023/08/19 05:57:09;;;;;;;4.72;4.25;;;21.20;99.90;;;;;;4970824;28;20039;-77
2023/08/19 05:59:35;;;;;;;5.55;5.00;;;21.30;99.90;;;;;;4970933;28;20453;-77
2023/08/19 06:02:00;;;;;;;4.50;4.10;;;21.30;99.90;;;;;;4971022;28;20054;-77
2023/08/19 06:04:26;;;;;;;4.60;4.20;;;21.30;99.90;;;;;;4961126;28;20054;-77
2023/08/19 06:06:52;;;;;;;4.80;4.30;;;21.40;99.90;;;;;;4966923;28;20074;-77
2023/08/19 06:09:18;;;;;;;4.78;4.38;;;21.40;99.90;;;;;;4972794;28;20118;-77
2023/08/19 06:11:52;;;;;;;6.78;4.43;;;21.40;99.90;;;;;;4967739;28;20102;-77
2023/08/19 06:14:19;;;;;;;5.30;4.63;;;21.40;99.90;;;;;;4958386;28;20043;-77
2023/08/19 06:16:45;;;;;;;4.50;4.10;;;21.50;99.90;;;;;;4970737;28;20078;-77
2023/08/19 06:19:12;;;;;;;4.10;3.67;;;21.50;99.90;;;;;;4957179;28;20076;-77
2023/08/19 06:21:38;;;;;;;4.40;4.00;;;21.60;99.90;;;;;;4967645;28;20529;-77
2023/08/19 06:24:05;;;;;;;4.60;4.20;;;21.60;99.90;;;;;;4968247;28;20061;-77
2023/08/19 06:26:30;;;;;;;4.72;4.20;;;21.60;99.90;;;;;;4970859;28;20072;-77
2023/08/19 06:28:56;;;;;;;5.05;4.47;;;21.60;99.90;;;;;;4954535;28;20474;-77
2023/08/19 06:31:22;;;;;;;4.68;4.28;;;21.70;99.90;;;;;;4969896;28;20392;-74
2023/08/19 06:33:53;;;;;;;4.53;4.10;;;21.70;99.90;;;;;;4969332;28;20162;-77
2023/08/19 06:36:25;;;;;;;4.78;4.20;;;21.80;99.90;;;;;;4969596;28;20042;-76
2023/08/19 06:39:07;;;;;;;5.28;4.78;;;21.80;99.90;;;;;;4969504;28;20053;-76
2023/08/19 06:41:41;;;;;;;5.65;4.60;;;21.80;99.90;;;;;;4969455;28;20577;-76
2023/08/19 06:44:08;;;;;;;5.35;4.47;;;21.80;99.90;;;;;;4959105;28;20039;-76
2023/08/19 06:46:35;;;;;;;4.20;3.80;;;21.80;99.90;;;;;;4979714;28;20060;-76
2023/08/19 06:49:01;;;;;;;4.40;4.00;;;21.70;99.90;;;;;;4958971;28;20058;-76
2023/08/19 06:51:28;;;;;;;4.72;4.10;;;21.70;99.90;;;;;;4969549;28;20065;-76
2023/08/19 06:53:54;;;;;;;4.00;3.60;;;21.70;99.90;;;;;;4962510;28;20078;-76
2023/08/19 06:56:32;;;;;;;5.43;3.88;;;21.70;99.90;;;;;;4963065;28;20494;-76
2023/08/19 06:59:24;;;;;;;4.72;3.83;;;21.70;99.90;;;;;;4969304;28;20582;-76
2023/08/19 07:01:51;;;;;;;4.72;4.22;;;21.70;99.90;;;;;;4946716;28;20055;-76
2023/08/19 07:04:27;;;;;;;4.78;3.90;;;21.60;99.90;;;;;;4969195;28;20081;-76
2023/08/19 07:06:56;;;;;;;4.35;3.65;;;21.60;99.90;;;;;;4955688;28;20149;-76
2023/08/19 07:09:23;;;;;;;3.17;2.88;;;21.60;99.90;;;;;;4961807;28;20506;-76
2023/08/19 07:11:57;;;;;;;3.30;3.00;;;21.60;99.90;;;;;;4966697;28;20525;-76
2023/08/19 07:14:24;;;;;;;3.75;3.25;;;21.70;99.90;;;;;;4945127;28;20397;-76
2023/08/19 07:16:50;;;;;;;4.15;3.58;;;21.70;99.90;;;;;;4972593;28;20154;-76
2023/08/19 07:19:27;;;;;;;4.40;3.60;;;21.70;99.90;;;;;;4972749;28;20066;-76
2023/08/19 07:21:56;;;;;;;4.85;3.30;;;21.80;99.90;;;;;;4969718;28;20046;-76
2023/08/19 07:24:22;;;;;;;3.80;3.50;;;21.80;99.90;;;;;;4956262;28;20051;-76
2023/08/19 07:26:48;;;;;;;3.50;3.20;;;21.80;99.90;;;;;;4972454;28;20059;-76
2023/08/19 07:29:15;;;;;;;3.45;3.15;;;21.90;99.90;;;;;;4972230;28;20052;-76
2023/08/19 07:31:41;;;;;;;3.25;2.95;;;22.00;99.90;;;;;;4918025;28;1117121;-76
2023/08/19 07:34:07;;;;;;;2.70;2.33;;;22.00;99.90;;;;;;4957360;28;20134;-76
2023/08/19 07:36:33;;;;;;;3.33;2.08;;;22.10;99.90;;;;;;4970186;28;20134;-76
2023/08/19 07:39:00;;;;;;;2.88;2.35;;;22.10;99.90;;;;;;4964215;28;20136;-76
2023/08/19 07:41:25;;;;;;;2.67;2.47;;;22.10;99.90;;;;;;4957334;28;20047;-76
2023/08/19 07:43:51;;;;;;;2.67;2.45;;;22.20;99.90;;;;;;4970121;28;20054;-76
2023/08/19 07:46:17;;;;;;;2.92;2.63;;;22.30;99.90;;;;;;4954512;28;20149;-76
2023/08/19 07:48:46;;;;;;;2.92;2.38;;;22.40;99.90;;;;;;4957123;28;20043;-76
2023/08/19 07:51:12;;;;;;;2.53;2.33;;;22.40;99.90;;;;;;4972825;28;20069;-76
2023/08/19 07:53:38;;;;;;;2.45;2.25;;;22.50;99.90;;;;;;4972813;28;20042;-76
2023/08/19 07:56:07;;;;;;;3.25;2.75;;;22.50;99.90;;;;;;4956931;28;20129;-76
2023/08/19 07:58:33;;;;;;;2.72;2.53;;;22.50;99.90;;;;;;4973202;28;20121;-76
2023/08/19 08:00:59;;;;;;;3.40;2.90;;;22.60;99.90;;;;;;4963674;28;20043;-76
2023/08/19 08:03:25;;;;;;;2.60;2.40;;;22.60;99.90;;;;;;4968410;28;20047;-76
2023/08/19 08:05:50;;;;;;;5.07;2.90;;;22.60;99.90;;;;;;4956877;28;20054;-76
2023/08/19 08:08:16;;;;;;;3.10;2.80;;;22.60;99.90;;;;;;4969393;28;20039;-76
2023/08/19 08:10:42;;;;;;;3.50;3.20;;;22.60;99.90;;;;;;4988248;28;20060;-76
2023/08/19 08:13:07;;;;;;;4.38;3.53;;;22.60;99.90;;;;;;4969313;28;20055;-76
2023/08/19 08:15:33;;;;;;;2.97;2.75;;;22.70;99.90;;;;;;4970267;28;20034;-76
2023/08/19 08:17:59;;;;;;;3.45;3.10;;;22.80;99.90;;;;;;4940592;28;20532;-76
2023/08/19 08:20:25;;;;;;;2.80;2.50;;;22.80;99.90;;;;;;4942515;28;20098;-76
2023/08/19 08:22:50;;;;;;;4.28;2.67;;;22.80;99.90;;;;;;4969683;28;20047;-76
2023/08/19 08:25:16;;;;;;;3.22;2.92;;;22.90;99.90;;;;;;4966420;28;20505;-76
2023/08/19 08:27:42;;;;;;;3.20;2.90;;;22.90;99.90;;;;;;4972487;28;20121;-76
2023/08/19 08:30:08;;;;;;;4.15;3.72;;;23.00;99.90;;;;;;4972795;28;20050;-76
2023/08/19 08:32:34;;;;;;;4.25;2.90;;;23.10;99.90;;;;;;4972268;28;20051;-76
2023/08/19 08:34:59;;;;;;;2.90;2.60;;;23.10;99.90;;;;;;4967459;28;20439;-76
2023/08/19 08:37:25;;;;;;;3.20;2.90;;;23.20;99.90;;;;;;4980619;28;20585;-76
2023/08/19 08:39:51;;;;;;;3.85;3.05;;;23.20;99.90;;;;;;4952868;29;20111;-76
2023/08/19 08:42:17;;;;;;;2.50;2.30;;;23.30;99.90;;;;;;4962302;28;20042;-76
2023/08/19 08:44:46;;;;;;;2.47;2.28;;;23.40;99.90;;;;;;4958642;28;20050;-76
2023/08/19 08:47:14;;;;;;;3.28;2.33;;;23.50;99.90;;;;;;4948336;28;20051;-76
2023/08/19 08:49:40;;;;;;;3.33;2.45;;;23.60;99.90;;;;;;4966711;28;20054;-76
2023/08/19 08:52:06;;;;;;;2.63;2.42;;;23.60;99.90;;;;;;4972324;28;20054;-76
2023/08/19 08:54:33;;;;;;;2.63;2.42;;;23.70;99.90;;;;;;4965122;28;20047;-76
2023/08/19 08:57:02;;;;;;;2.95;2.30;;;23.90;99.90;;;;;;4967540;28;20071;-76
2023/08/19 08:59:28;;;;;;;2.65;2.30;;;24.00;99.90;;;;;;4979054;28;20101;-76
2023/08/19 09:01:55;;;;;;;4.15;3.15;;;24.10;99.90;;;;;;4955953;28;20513;-76
2023/08/19 09:04:23;;;;;;;3.53;3.00;;;24.20;99.90;;;;;;4972114;28;20073;-76
2023/08/19 09:06:56;;;;;;;2.63;2.42;;;24.50;99.90;;;;;;4971730;28;20035;-76
2023/08/19 09:09:24;;;;;;;4.60;3.15;;;25.10;99.90;;;;;;4944960;28;20145;-76
2023/08/19 09:11:53;;;;;;;3.60;3.08;;;25.30;99.90;;;;;;4956238;28;20062;-76
2023/08/19 09:14:42;;;;;;;3.10;2.80;;;25.40;25.70;;;;;;4971994;28;20065;-76
2023/08/19 09:17:09;;;;;;;4.60;2.67;;;25.40;1.00;;;;;;4971808;28;20047;-76
2023/08/19 09:19:35;;;;;;;2.60;2.40;;;25.60;99.90;;;;;;4971452;28;20406;-76
2023/08/19 09:22:17;;;;;;;2.58;2.30;;;25.80;1.00;;;;;;4971469;28;20047;-76
2023/08/19 09:24:43;;;;;;;2.20;2.00;;;25.90;1.00;;;;;;4971582;28;20046;-77
2023/08/19 09:27:09;;;;;;;2.47;2.10;;;26.00;99.90;;;;;;4970563;28;20039;-77
2023/08/19 09:29:35;;;;;;;3.38;2.50;;;26.00;69.30;;;;;;4958923;28;20050;-77
2023/08/19 09:32:02;;;;;;;2.83;2.55;;;25.90;99.90;;;;;;4970395;28;20138;-77
2023/08/19 09:34:28;;;;;;;3.00;2.17;;;25.90;1.00;;;;;;4990298;28;20039;-77
2023/08/19 09:36:56;;;;;;;2.00;1.90;;;25.80;99.90;;;;;;4971240;28;20432;-77
2023/08/19 09:39:25;;;;;;;2.15;1.88;;;25.80;1.00;;;;;;4971224;28;20410;-77
2023/08/19 09:41:56;;;;;;;2.88;2.20;;;25.80;1.00;;;;;;4971386;28;20057;-77
2023/08/19 09:44:22;;;;;;;2.50;2.20;;;25.80;1.00;;;;;;4955311;28;20050;-77
2023/08/19 09:46:48;;;;;;;2.33;1.85;;;25.90;99.90;;;;;;4971404;28;20440;-77
2023/08/19 09:49:21;;;;;;;1.92;1.70;;;26.00;1.00;;;;;;4971247;28;20494;-77
2023/08/19 09:51:55;;;;;;;2.53;2.33;;;26.10;55.60;;;;;;4969808;28;20503;-77
2023/08/19 09:54:21;;;;;;;2.58;2.30;;;26.30;1.00;;;;;;4962636;28;20065;-77
2023/08/19 09:56:55;;;;;;;2.95;1.98;;;26.50;1.00;;;;;;4970964;28;20049;-76
2023/08/19 09:59:25;;;;;;;2.50;2.30;;;26.60;1.00;;;;;;4971277;28;20077;-77
2023/08/19 10:01:52;;;;;;;2.90;2.40;;;26.60;1.00;;;;;;4970742;28;20046;-77
2023/08/19 10:04:21;;;;;;;2.55;2.25;;;26.50;99.90;;;;;;4971264;28;20082;-77
2023/08/19 10:06:50;;;;;;;2.20;2.00;;;26.40;28.50;;;;;;4971053;28;20466;-77
2023/08/19 10:09:18;;;;;;;3.22;2.33;;;26.30;75.00;;;;;;4970880;28;20050;-77
2023/08/19 10:11:47;;;;;;;2.72;2.40;;;26.20;99.90;;;;;;4970747;28;20156;-77
2023/08/19 10:14:13;;;;;;;2.70;2.17;;;26.00;1.00;;;;;;4970734;28;20093;-77
2023/08/19 10:16:44;;;;;;;2.72;2.15;;;25.90;99.90;;;;;;4958718;28;20498;-77
2023/08/19 10:19:13;;;;;;;2.47;2.20;;;25.90;1.00;;;;;;4971611;28;20434;-77
2023/08/19 10:21:40;;;;;;;2.38;2.17;;;25.80;1.00;;;;;;4954791;28;20446;-77
2023/08/19 10:24:07;;;;;;;2.35;1.98;;;25.70;1.00;;;;;;4970524;28;20451;-77
2023/08/19 10:26:33;;;;;;;2.83;2.03;;;25.60;42.90;;;;;;4970819;28;20446;-77
2023/08/19 10:29:07;;;;;;;3.03;2.10;;;25.50;99.90;;;;;;4954265;28;20051;-77
2023/08/19 10:31:34;;;;;;;2.15;1.90;;;25.40;99.90;;;;;;4966862;28;20407;-77
2023/08/19 10:34:09;;;;;;;2.45;1.90;;;25.30;99.90;;;;;;5003099;28;20129;-77
2023/08/19 10:36:34;;;;;;;2.20;2.00;;;25.20;1.00;;;;;;4970308;28;20054;-77
2023/08/19 10:39:00;;;;;;;3.22;1.80;;;25.20;99.90;;;;;;4954454;28;20042;-77
2023/08/19 10:41:27;;;;;;;2.95;2.55;;;25.20;99.90;;;;;;4938150;28;20410;-77
2023/08/19 10:43:54;;;;;;;1.85;1.70;;;25.30;99.90;;;;;;4954103;28;20563;-78
2023/08/19 10:46:23;;;;;;;2.53;1.90;;;25.40;99.90;;;;;;4970155;28;20054;-77
2023/08/19 10:48:50;;;;;;;2.42;1.77;;;25.60;99.90;;;;;;4970222;28;20532;-77
2023/08/19 10:51:19;;;;;;;2.97;1.70;;;25.70;99.90;;;;;;4954633;28;20374;-77
2023/08/19 10:53:49;;;;;;;2.30;2.00;;;25.80;99.90;;;;;;4956908;28;20118;-77
2023/08/19 10:56:17;;;;;;;2.22;1.75;;;25.90;99.90;;;;;;4966962;28;20051;-77
2023/08/19 10:58:44;;;;;;;3.22;2.25;;;25.90;99.90;;;;;;4953268;28;20050;-77
2023/08/19 11:01:11;;;;;;;3.50;2.55;;;25.90;99.90;;;;;;4970066;28;20053;-77
2023/08/19 11:03:38;;;;;;;3.85;2.00;;;25.80;99.90;;;;;;4969824;28;20074;-77
2023/08/19 11:06:06;;;;;;;2.80;2.47;;;25.70;99.90;;;;;;4945050;29;20054;-77
2023/08/19 11:08:43;;;;;;;2.90;2.42;;;25.60;99.90;;;;;;4965858;28;20130;-77
2023/08/19 11:11:15;;;;;;;3.65;2.90;;;25.50;99.90;;;;;;4954318;28;20042;-77
2023/08/19 11:13:40;;;;;;;3.45;2.83;;;25.40;99.90;;;;;;4969877;28;20105;-77
2023/08/19 11:16:06;;;;;;;4.03;3.00;;;25.30;99.90;;;;;;4969927;28;20046;-77
2023/08/19 11:18:38;;;;;;;4.00;3.13;;;25.30;99.90;;;;;;4956388;28;20043;-76
2023/08/19 11:21:03;;;;;;;3.17;2.72;;;25.40;99.90;;;;;;4938052;29;20047;-77
2023/08/19 11:23:29;;;;;;;3.33;2.50;;;25.60;99.90;;;;;;4947165;28;20050;-77
2023/08/19 11:25:55;;;;;;;2.10;1.90;;;25.90;99.90;;;;;;4953824;28;20043;-77
2023/08/19 11:28:21;;;;;;;2.65;2.20;;;26.10;99.90;;;;;;4969949;28;20051;-77
2023/08/19 11:30:48;;;;;;;2.50;2.30;;;26.60;99.90;;;;;;4953894;28;20047;-77
2023/08/19 11:33:18;;;;;;;4.05;3.08;;;27.30;99.90;;;;;;4963970;28;20055;-77
2023/08/19 11:35:43;;;;;;;4.25;2.92;;;27.60;1.00;;;;;;4958797;28;20039;-77
2023/08/19 11:38:16;;;;;;;5.80;4.18;;;28.00;99.90;;;;;;4951336;28;20112;-77
2023/08/19 11:40:42;;;;;;;4.55;3.40;;;27.80;99.90;;;;;;4960017;28;20090;-77
2023/08/19 11:43:11;;;;;;;5.13;3.47;;;27.90;1.00;;;;;;4963949;28;20047;-77
2023/08/19 11:45:38;;;;;;;3.83;3.45;;;28.00;99.90;;;;;;4959406;28;20046;-77
2023/08/19 11:48:05;;;;;;;4.60;3.60;;;27.90;99.90;;;;;;4969678;28;20059;-77
2023/08/19 11:50:34;;;;;;;3.55;3.10;;;27.90;99.90;;;;;;4962765;28;20530;-77
2023/08/19 11:53:03;;;;;;;3.72;3.22;;;27.80;99.90;;;;;;4979461;28;20054;-77
2023/08/19 11:55:29;;;;;;;3.67;3.17;;;27.70;99.90;;;;;;4970830;28;20526;-77
2023/08/19 11:57:55;;;;;;;5.25;4.45;;;27.60;1.00;;;;;;4961613;28;20098;-77
2023/08/19 12:00:24;;;;;;;6.63;5.40;;;27.60;99.90;;;;;;4954674;28;20479;-77
2023/08/19 12:02:50;;;;;;;7.70;6.57;;;27.50;99.90;;;;;;4953914;28;20452;-78
2023/08/19 12:05:25;;;;;;;6.90;6.20;;;27.40;99.90;;;;;;4951190;28;20042;-77
2023/08/19 12:07:51;;;;;;;7.78;6.75;;;27.40;99.90;;;;;;4979737;28;20043;-77
2023/08/19 12:10:17;;;;;;;7.97;6.70;;;27.30;1.00;;;;;;4976813;28;20046;-77
2023/08/19 12:12:59;;;;;;;8.23;7.32;;;27.10;36.70;;;;;;4969553;28;20051;-77
2023/08/19 12:15:24;;;;;;;8.82;7.95;;;26.90;99.90;;;;;;4969438;28;20047;-77
2023/08/19 12:17:50;;;;;;;7.93;6.88;;;26.80;99.90;;;;;;4964886;28;20542;-77
2023/08/19 12:20:16;;;;;;;7.90;7.10;;;26.70;99.90;;;;;;4953752;28;20062;-78
2023/08/19 12:22:41;;;;;;;9.57;8.25;;;26.50;1.00;;;;;;4972821;28;20504;-77
2023/08/19 12:25:09;;;;;;;10.52;9.40;;;26.40;27.90;;;;;;4956448;28;20054;-77
2023/08/19 12:27:35;;;;;;;11.77;10.57;;;26.30;36.10;;;;;;4968197;28;20078;-77
2023/08/19 12:30:00;;;;;;;16.45;14.45;;;26.10;94.80;;;;;;4995701;28;20093;-77
2023/08/19 12:32:26;;;;;;;15.38;13.90;;;25.90;99.90;;;;;;4956593;28;20051;-77
2023/08/19 12:34:52;;;;;;;20.50;17.50;;;25.80;99.90;;;;;;4971349;28;20046;-77
2023/08/19 12:37:18;;;;;;;17.08;15.25;;;25.50;99.90;;;;;;4956471;28;20636;-77
2023/08/19 12:39:43;;;;;;;23.10;20.58;;;25.40;99.90;;;;;;4972255;28;20101;-78
2023/08/19 12:42:09;;;;;;;25.02;20.92;;;25.10;99.90;;;;;;4956738;28;20057;-77
2023/08/19 12:44:35;;;;;;;26.00;20.63;;;25.00;99.90;;;;;;4972125;28;20509;-77
2023/08/19 12:47:00;;;;;;;18.70;14.95;;;24.80;99.90;;;;;;4959429;28;20081;-77
2023/08/19 12:49:26;;;;;;;18.75;15.65;;;24.80;99.90;;;;;;4963404;28;20101;-77